Time;durP1;ratioP1;P1;durP2;ratioP2;P2;SDS_P1;SDS_P2;PMS_P1;PMS_P2;Temp;Humidity;BMP_temperature;BMP_pressure;BME280_temperature;BME280_humidity;BME280_pressure;Samples;Min_cycle;Max_cycle;Signal;HPM_P1;HPM_P2
2023/06/17 00:01:21;;;;;;;6.82;6.32;;;14.80;99.90;;;15.80;68.20;97880.09;5193367;28;20810;-66
2023/06/17 00:03:54;;;;;;;6.78;6.15;;;14.80;99.90;;;15.76;67.88;97879.94;5189124;28;20228;-66
2023/06/17 00:06:27;;;;;;;7.03;6.53;;;14.80;99.90;;;15.77;68.19;97886.88;5194918;28;20684;-66
2023/06/17 00:09:00;;;;;;;6.55;6.05;;;14.80;99.90;;;15.72;68.36;97883.25;5195517;28;20221;-66
2023/06/17 00:11:33;;;;;;;7.25;6.75;;;14.80;99.90;;;15.58;68.73;97881.81;5192558;28;20234;-66
2023/06/17 00:14:07;;;;;;;7.20;6.60;;;14.60;99.90;;;15.39;69.76;97884.50;5196725;28;20226;-66
2023/06/17 00:16:43;;;;;;;7.43;6.93;;;14.50;99.90;;;15.39;69.81;97880.22;5196230;28;20272;-66
2023/06/17 00:19:17;;;;;;;7.93;7.30;;;14.40;99.90;;;15.36;69.56;97874.09;5193053;28;20230;-66
2023/06/17 00:21:50;;;;;;;7.55;6.95;;;14.50;99.90;;;15.39;70.02;97877.66;5195974;28;20279;-66
2023/06/17 00:24:23;;;;;;;7.63;7.03;;;14.50;99.90;;;15.38;70.40;97873.34;5193223;28;20689;-66
2023/06/17 00:26:56;;;;;;;7.30;6.70;;;14.50;99.90;;;15.39;69.62;97879.38;5190587;28;20952;-66
2023/06/17 00:29:30;;;;;;;7.55;6.95;;;14.50;99.90;;;15.37;70.23;97878.44;5191392;28;20714;-66
2023/06/17 00:32:04;;;;;;;7.50;6.90;;;14.40;99.90;;;15.34;70.74;97879.22;5196488;28;20229;-66
2023/06/17 00:34:38;;;;;;;7.22;6.63;;;14.40;99.90;;;15.38;70.83;97877.63;5192710;28;20229;-66
2023/06/17 00:37:11;;;;;;;6.70;6.20;;;14.40;99.90;;;15.35;70.71;97880.94;5196466;28;20263;-66
2023/06/17 00:39:44;;;;;;;6.63;6.13;;;14.40;99.90;;;15.31;70.99;97881.66;5194181;28;20252;-66
2023/06/17 00:42:17;;;;;;;6.88;6.40;;;14.30;99.90;;;15.28;71.23;97878.94;5192101;28;20233;-66
2023/06/17 00:44:50;;;;;;;6.32;5.82;;;14.30;99.90;;;15.28;71.62;97877.28;5189640;28;20249;-65
2023/06/17 00:47:25;;;;;;;6.70;6.15;;;14.30;99.90;;;15.25;71.76;97869.44;5194958;28;20222;-65
2023/06/17 00:49:59;;;;;;;7.22;6.53;;;14.20;99.90;;;15.19;71.41;97876.88;5197438;28;20699;-66
2023/06/17 00:52:34;;;;;;;6.93;6.38;;;14.20;99.90;;;15.09;71.42;97874.78;5193682;28;20272;-66
2023/06/17 00:55:14;;;;;;;7.45;6.78;;;14.10;99.90;;;15.03;71.87;97874.56;5196823;28;20281;-66
2023/06/17 00:57:48;;;;;;;7.82;7.22;;;14.00;99.90;;;14.99;72.07;97870.94;5198451;28;20257;-66
2023/06/17 01:00:21;;;;;;;7.20;6.70;;;14.00;99.90;;;14.86;72.49;97879.91;5197776;28;20652;-66
2023/06/17 01:02:56;;;;;;;7.72;7.07;;;13.80;99.90;;;14.80;72.86;97871.94;5192516;28;20542;-66
2023/06/17 01:05:30;;;;;;;7.90;7.40;;;13.80;99.90;;;14.60;73.06;97872.81;5191144;28;20862;-66
2023/06/17 01:08:16;;;;;;;7.60;6.90;;;13.70;99.90;;;14.59;73.51;97865.88;5195380;28;20227;-65
2023/06/17 01:10:59;;;;;;;8.15;7.45;;;13.60;99.90;;;14.65;73.78;97876.47;5199586;28;20261;-66
2023/06/17 01:13:34;;;;;;;7.22;6.63;;;13.70;99.90;;;14.63;73.79;97872.94;5198958;28;20566;-66
2023/06/17 01:16:08;;;;;;;7.70;7.00;;;13.70;99.90;;;14.63;74.24;97872.94;5202789;28;20700;-66
2023/06/17 01:18:48;;;;;;;7.40;6.75;;;13.60;99.90;;;14.67;74.44;97869.66;5200498;28;20226;-66
2023/06/17 01:21:22;;;;;;;7.72;7.13;;;13.60;99.90;;;14.67;74.36;97872.22;5195421;28;20229;-66
2023/06/17 01:23:59;;;;;;;6.93;6.43;;;13.60;99.90;;;14.67;74.42;97873.94;5200944;28;20483;-66
2023/06/17 01:26:35;;;;;;;6.88;6.38;;;13.60;99.90;;;14.63;74.45;97867.78;5198581;28;20702;-66
2023/06/17 01:29:09;;;;;;;7.78;7.07;;;13.60;99.90;;;14.70;73.33;97869.78;5196912;28;20701;-66
2023/06/17 01:31:48;;;;;;;7.28;6.78;;;13.70;99.90;;;14.72;73.19;97870.72;5200087;28;20221;-66
2023/06/17 01:34:29;;;;;;;7.82;7.18;;;13.70;99.90;;;14.63;73.98;97868.66;5196601;28;20703;-66
2023/06/17 01:37:07;;;;;;;7.43;6.82;;;13.70;99.90;;;14.57;74.38;97862.41;5194849;28;20229;-66
2023/06/17 01:39:44;;;;;;;8.02;7.40;;;13.60;99.90;;;14.48;75.03;97857.72;5189759;28;20246;-66
2023/06/17 01:42:25;;;;;;;8.35;7.65;;;13.50;99.90;;;14.48;74.13;97861.97;5194404;28;20233;-66
2023/06/17 01:45:01;;;;;;;8.18;7.50;;;13.40;99.90;;;14.43;73.58;97862.66;5198073;28;20226;-66
2023/06/17 01:47:34;;;;;;;8.57;7.78;;;13.30;99.90;;;14.44;73.97;97871.25;5198613;28;20229;-66
2023/06/17 01:50:09;;;;;;;7.75;7.10;;;13.40;99.90;;;14.31;75.45;97875.00;5198358;28;20229;-66
2023/06/17 01:52:42;;;;;;;7.47;6.88;;;13.30;99.90;;;14.30;74.36;97878.38;5194020;28;20225;-66
2023/06/17 01:55:17;;;;;;;7.53;6.95;;;13.30;99.90;;;14.11;75.09;97873.28;5198161;28;20296;-66
2023/06/17 01:57:52;;;;;;;7.25;6.65;;;13.20;99.90;;;14.10;75.69;97879.22;5197528;28;20711;-66
2023/06/17 02:00:26;;;;;;;7.15;6.47;;;13.10;99.90;;;14.15;74.65;97872.59;5198415;28;20217;-66
2023/06/17 02:02:59;;;;;;;7.28;6.68;;;13.10;99.90;;;14.17;75.22;97876.09;5198106;28;20221;-66
2023/06/17 02:05:32;;;;;;;6.95;6.35;;;13.10;99.90;;;14.09;76.31;97872.31;5194602;28;20760;-66
2023/06/17 02:08:05;;;;;;;7.10;6.60;;;13.00;99.90;;;14.06;75.79;97867.06;5198636;28;20226;-66
2023/06/17 02:10:39;;;;;;;7.43;6.82;;;13.10;99.90;;;14.03;76.00;97872.94;5198769;28;20222;-66
2023/06/17 02:13:14;;;;;;;7.28;6.68;;;13.10;99.90;;;14.01;76.74;97873.66;5199812;28;20226;-66
2023/06/17 02:15:47;;;;;;;7.63;6.70;;;13.10;99.90;;;14.04;75.62;97869.53;5194006;28;20283;-65
2023/06/17 02:18:20;;;;;;;7.38;6.78;;;13.10;99.90;;;14.03;76.01;97872.94;5198611;28;20306;-66
2023/06/17 02:20:53;;;;;;;7.95;7.25;;;13.00;99.90;;;13.97;75.78;97881.25;5200941;28;20226;-66
2023/06/17 02:23:27;;;;;;;7.38;6.78;;;13.00;99.90;;;13.85;76.59;97880.72;5199117;28;20217;-66
2023/06/17 02:26:00;;;;;;;7.47;6.88;;;12.90;99.90;;;13.81;77.61;97871.09;5191654;28;20399;-66
2023/06/17 02:28:34;;;;;;;7.50;6.80;;;12.80;99.90;;;13.82;77.32;97871.97;5196106;28;20669;-66
2023/06/17 02:31:07;;;;;;;7.68;7.05;;;12.80;99.90;;;13.84;77.16;97862.66;5200162;28;20708;-66
2023/06/17 02:33:40;;;;;;;7.70;7.18;;;12.80;99.90;;;13.80;77.56;97866.78;5196625;28;20229;-66
2023/06/17 02:36:14;;;;;;;8.35;7.20;;;12.80;99.90;;;13.77;77.40;97873.47;5198774;28;20229;-67
2023/06/17 02:38:48;;;;;;;8.05;7.38;;;12.70;99.90;;;13.64;78.09;97866.91;5200194;28;20272;-66
2023/06/17 02:41:21;;;;;;;7.70;7.15;;;12.70;99.90;;;13.52;78.50;97868.09;5199398;28;20226;-66
2023/06/17 02:43:55;;;;;;;8.27;7.60;;;12.50;99.90;;;13.55;78.40;97866.50;5194919;28;20272;-66
2023/06/17 02:46:28;;;;;;;8.38;7.75;;;12.50;99.90;;;13.42;78.76;97868.50;5201353;28;20259;-66
2023/06/17 02:49:02;;;;;;;8.20;7.60;;;12.40;99.90;;;13.42;78.85;97868.50;5200819;28;20691;-65
2023/06/17 02:51:35;;;;;;;8.38;7.68;;;12.40;99.90;;;13.42;79.03;97871.06;5199579;28;20225;-66
2023/06/17 02:54:08;;;;;;;7.55;6.95;;;12.40;99.90;;;13.45;78.98;97867.78;5196945;28;20287;-66
2023/06/17 02:56:41;;;;;;;7.95;7.35;;;12.50;99.90;;;13.55;78.83;97866.50;5195165;28;20759;-66
2023/06/17 02:59:16;;;;;;;8.27;7.63;;;12.50;99.90;;;13.51;78.96;97863.78;5198823;28;20225;-66
2023/06/17 03:01:50;;;;;;;7.78;7.07;;;12.60;99.90;;;13.51;79.24;97870.63;5199172;28;20267;-65
2023/06/17 03:04:23;;;;;;;7.93;7.22;;;12.60;99.90;;;13.51;79.27;97868.91;5198242;28;20235;-66
2023/06/17 03:06:56;;;;;;;8.75;7.88;;;12.50;99.90;;;13.42;79.62;97865.03;5197236;28;20229;-66
2023/06/17 03:09:29;;;;;;;8.10;7.50;;;12.40;99.90;;;13.37;80.07;97864.84;5196533;28;20217;-66
2023/06/17 03:12:06;;;;;;;9.07;8.18;;;12.40;99.90;;;13.35;79.81;97860.44;5193771;28;20836;-66
2023/06/17 03:14:41;;;;;;;8.25;7.65;;;12.50;99.90;;;13.25;80.36;97862.59;5191229;28;20288;-66
2023/06/17 03:17:14;;;;;;;8.00;7.30;;;12.40;99.90;;;13.39;80.23;97865.81;5198151;28;20862;-66
2023/06/17 03:19:47;;;;;;;8.50;7.80;;;12.50;99.90;;;13.45;79.48;97870.34;5193863;28;20710;-66
2023/06/17 03:22:20;;;;;;;8.25;7.70;;;12.50;99.90;;;13.46;79.22;97865.25;5194711;28;20542;-66
2023/06/17 03:24:54;;;;;;;8.70;7.97;;;12.50;99.90;;;13.47;79.42;97867.00;5194067;28;20230;-66
2023/06/17 03:27:27;;;;;;;8.40;7.70;;;12.50;99.90;;;13.46;80.01;97866.94;5198369;28;20230;-65
2023/06/17 03:30:02;;;;;;;8.48;7.78;;;12.40;99.90;;;13.46;79.37;97875.53;5195585;28;20226;-66
2023/06/17 03:32:35;;;;;;;8.20;7.50;;;12.40;99.90;;;13.42;79.09;97880.44;5193856;28;20694;-66
2023/06/17 03:35:09;;;;;;;8.23;7.50;;;12.40;99.90;;;13.37;79.73;97872.53;5192103;28;20671;-66
2023/06/17 03:37:42;;;;;;;7.80;7.20;;;12.40;99.90;;;13.37;80.94;97872.53;5196732;28;20296;-65
2023/06/17 03:40:15;;;;;;;8.38;7.63;;;12.40;99.90;;;13.43;80.07;97872.81;5193606;28;20222;-65
2023/06/17 03:42:49;;;;;;;8.27;7.68;;;12.50;99.90;;;13.50;80.81;97869.72;5197512;28;20618;-66
2023/06/17 03:45:24;;;;;;;8.88;7.95;;;12.50;99.90;;;13.62;80.12;97874.56;5196147;28;20718;-66
2023/06/17 03:47:57;;;;;;;8.95;8.15;;;12.60;99.90;;;13.71;79.24;97874.09;5199132;28;20710;-66
2023/06/17 03:50:30;;;;;;;8.63;7.82;;;12.60;99.90;;;13.69;79.26;97875.69;5197092;28;20404;-65
2023/06/17 03:53:03;;;;;;;8.05;7.35;;;12.50;99.90;;;13.60;78.44;97870.16;5196247;28;20217;-65
2023/06/17 03:55:37;;;;;;;7.85;7.25;;;12.50;99.90;;;13.58;79.42;97871.75;5190347;28;20236;-65
2023/06/17 03:58:14;;;;;;;8.20;7.50;;;12.50;99.90;;;13.57;79.01;97876.03;5197178;28;20272;-65
2023/06/17 04:00:49;;;;;;;8.43;7.72;;;12.50;99.90;;;13.51;79.31;97875.75;5191564;28;20222;-65
2023/06/17 04:03:24;;;;;;;8.00;7.40;;;12.50;99.90;;;13.57;78.64;97870.00;5186374;28;20241;-66
2023/06/17 04:05:58;;;;;;;8.23;7.43;;;12.60;99.90;;;13.62;79.67;97879.69;5187072;28;20312;-65
2023/06/17 04:08:32;;;;;;;8.75;8.05;;;12.60;99.90;;;13.63;79.15;97880.56;5185620;28;20234;-65
2023/06/17 04:11:06;;;;;;;8.30;7.60;;;12.60;99.90;;;13.69;78.70;97874.00;5187881;28;20232;-65
2023/06/17 04:13:39;;;;;;;8.43;7.82;;;12.70;99.90;;;13.74;79.60;97880.22;5188155;28;20314;-65
2023/06/17 04:16:15;;;;;;;8.15;7.45;;;12.80;99.90;;;13.86;78.70;97874.75;5189359;28;20241;-65
2023/06/17 04:18:48;;;;;;;8.32;7.63;;;12.90;99.90;;;13.88;78.44;97878.28;5186911;28;20228;-65
2023/06/17 04:21:22;;;;;;;8.35;7.65;;;13.00;99.90;;;13.75;78.49;97879.41;5182044;28;20222;-65
2023/06/17 04:23:55;;;;;;;7.82;7.25;;;12.80;99.90;;;13.79;78.48;97882.13;5192028;28;20225;-65
2023/06/17 04:26:28;;;;;;;8.00;7.30;;;12.90;99.90;;;13.85;78.73;97883.28;5185139;28;20234;-65
2023/06/17 04:29:02;;;;;;;8.48;7.68;;;12.80;99.90;;;13.87;78.79;97881.63;5188288;28;20712;-65
2023/06/17 04:31:40;;;;;;;8.25;7.55;;;13.00;99.90;;;14.01;78.80;97874.53;5184065;28;20268;-65
2023/06/17 04:34:21;;;;;;;9.38;8.50;;;13.00;99.90;;;14.07;78.36;97884.22;5181886;28;20244;-65
2023/06/17 04:36:57;;;;;;;8.60;7.90;;;13.10;99.90;;;14.13;77.90;97876.78;5185137;28;20702;-65
2023/06/17 04:39:34;;;;;;;8.57;7.95;;;13.20;99.90;;;14.26;77.39;97873.06;5183502;28;20230;-65
2023/06/17 04:42:08;;;;;;;9.27;8.48;;;13.30;99.90;;;14.32;77.10;97879.31;5189515;28;20222;-65
2023/06/17 04:44:41;;;;;;;9.73;8.85;;;13.30;99.90;;;14.68;76.77;97876.59;5187742;28;20711;-65
2023/06/17 04:47:16;;;;;;;9.25;8.55;;;13.80;99.90;;;15.24;75.09;97874.50;5184602;28;20659;-65
2023/06/17 04:49:51;;;;;;;9.27;8.45;;;14.30;99.90;;;15.80;72.52;97874.94;5185671;28;20276;-65
2023/06/17 04:52:24;;;;;;;9.95;9.05;;;14.90;99.90;;;16.40;70.24;97867.63;5188362;28;20240;-65
2023/06/17 04:54:58;;;;;;;9.20;8.40;;;15.30;99.90;;;17.03;67.45;97873.19;5185742;28;20330;-65
2023/06/17 04:57:31;;;;;;;8.68;7.97;;;15.80;99.90;;;17.49;65.01;97873.72;5184573;28;20283;-65
2023/06/17 05:00:06;;;;;;;9.50;8.70;;;16.00;99.90;;;17.76;62.53;97863.31;5183811;28;20254;-66
2023/06/17 05:02:41;;;;;;;8.68;7.93;;;16.20;99.90;;;18.21;61.05;97855.13;5186772;28;20265;-65
2023/06/17 05:05:15;;;;;;;8.15;7.47;;;16.50;99.90;;;18.53;59.84;97855.09;5187757;28;20226;-65
2023/06/17 05:07:48;;;;;;;8.90;8.10;;;16.70;99.90;;;18.90;57.83;97856.91;5188872;28;20253;-65
2023/06/17 05:10:21;;;;;;;8.45;7.80;;;16.90;99.90;;;19.16;56.94;97865.28;5186758;28;20276;-66
2023/06/17 05:12:54;;;;;;;9.05;8.15;;;17.10;99.90;;;19.61;55.85;97868.91;5186396;28;20249;-65
2023/06/17 05:15:28;;;;;;;8.13;7.43;;;17.60;99.90;;;20.12;53.90;97868.25;5188044;28;20866;-66
2023/06/17 05:18:02;;;;;;;8.60;7.90;;;18.00;98.80;;;20.30;53.00;97866.00;5191195;28;20218;-65
2023/06/17 05:20:36;;;;;;;8.05;7.45;;;18.40;97.40;;;20.56;52.11;97865.63;5184073;28;20776;-65
2023/06/17 05:23:09;;;;;;;8.52;7.82;;;18.70;96.10;;;20.81;51.35;97872.13;5187226;28;20316;-65
2023/06/17 05:25:42;;;;;;;8.43;7.72;;;18.80;95.70;;;21.03;50.61;97871.63;5191146;28;20279;-65
2023/06/17 05:28:15;;;;;;;7.45;6.90;;;18.90;95.20;;;21.18;50.19;97872.72;5182940;28;20914;-65
2023/06/17 05:30:48;;;;;;;8.95;8.15;;;19.30;94.50;;;21.46;49.47;97869.72;5191101;28;20734;-65
2023/06/17 05:33:24;;;;;;;8.82;8.02;;;19.50;93.50;;;21.75;48.47;97862.28;5193307;28;20224;-65
2023/06/17 05:36:00;;;;;;;8.40;7.70;;;19.50;93.30;;;22.01;47.88;97860.00;5192587;28;20322;-66
2023/06/17 05:38:33;;;;;;;8.80;8.10;;;19.70;92.90;;;22.31;46.66;97861.22;5189413;28;20225;-65
2023/06/17 05:41:06;;;;;;;8.00;7.40;;;20.00;92.00;;;22.33;46.82;97867.34;5195037;28;20224;-66
2023/06/17 05:43:40;;;;;;;8.68;7.88;;;20.20;91.80;;;22.56;46.39;97869.31;5185809;28;20225;-66
2023/06/17 05:46:13;;;;;;;7.82;7.22;;;20.40;91.50;;;22.75;46.39;97865.13;5191139;28;20284;-66
2023/06/17 05:48:47;;;;;;;8.35;7.60;;;20.40;91.50;;;22.99;45.53;97861.91;5186408;28;20257;-65
2023/06/17 05:51:21;;;;;;;7.45;6.85;;;20.40;91.40;;;23.08;46.19;97869.78;5197231;28;20225;-66
2023/06/17 05:53:54;;;;;;;7.80;7.07;;;20.60;91.70;;;23.49;44.73;97869.19;5191522;28;20271;-66
2023/06/17 05:56:27;;;;;;;7.95;7.35;;;20.90;90.90;;;23.35;44.65;97871.69;5192991;28;20697;-65
2023/06/17 05:59:00;;;;;;;7.55;6.85;;;21.00;90.30;;;23.72;43.99;97874.56;5196230;28;20657;-64
2023/06/17 06:01:33;;;;;;;7.97;7.38;;;21.40;89.90;;;23.99;43.31;97863.38;5196556;28;20685;-65
2023/06/17 06:04:08;;;;;;;7.95;7.30;;;21.40;88.90;;;24.18;42.66;97859.97;5196748;28;20241;-65
2023/06/17 06:06:41;;;;;;;8.10;7.40;;;21.50;88.20;;;24.35;42.67;97862.63;5189509;28;20228;-65
2023/06/17 06:09:14;;;;;;;7.43;6.78;;;21.60;88.20;;;24.54;42.27;97868.78;5192230;28;20271;-65
2023/06/17 06:11:47;;;;;;;7.57;6.93;;;21.80;87.80;;;24.76;41.69;97864.47;5194628;28;20233;-65
2023/06/17 06:14:21;;;;;;;7.80;7.10;;;21.80;87.20;;;24.77;41.09;97860.97;5195628;28;20232;-65
2023/06/17 06:16:54;;;;;;;7.38;6.78;;;21.90;86.60;;;24.92;42.42;97866.22;5202539;28;20234;-65
2023/06/17 06:19:28;;;;;;;7.43;6.80;;;22.30;87.30;;;25.28;41.00;97864.47;5197034;28;20222;-65
2023/06/17 06:22:02;;;;;;;7.25;6.60;;;22.70;84.60;;;25.76;39.42;97861.75;5203007;28;20228;-65
2023/06/17 06:24:35;;;;;;;7.25;6.65;;;22.60;84.50;;;25.97;38.50;97856.44;5200652;28;20654;-65
2023/06/17 06:27:08;;;;;;;6.82;6.32;;;22.90;82.40;;;25.99;38.12;97864.31;5197426;28;20221;-65
2023/06/17 06:29:41;;;;;;;6.50;5.90;;;23.10;81.20;;;26.41;36.85;97865.84;5200086;28;20225;-65
2023/06/17 06:32:14;;;;;;;6.82;6.22;;;23.20;80.20;;;26.74;36.64;97862.16;5194744;28;20275;-65
2023/06/17 06:34:49;;;;;;;6.57;5.93;;;23.50;79.30;;;26.85;36.62;97864.69;5197847;28;20942;-65
2023/06/17 06:37:22;;;;;;;6.72;6.13;;;23.70;79.00;;;27.24;35.91;97867.00;5202242;28;20221;-65
2023/06/17 06:39:55;;;;;;;6.82;6.22;;;24.00;78.00;;;27.28;35.99;97863.50;5199351;28;20263;-65
2023/06/17 06:42:28;;;;;;;7.00;6.45;;;24.20;78.10;;;27.22;36.59;97869.66;5195795;28;20608;-64
2023/06/17 06:45:01;;;;;;;6.55;5.90;;;24.10;79.00;;;27.84;35.55;97869.91;5196184;28;20689;-65
2023/06/17 06:47:34;;;;;;;6.82;6.22;;;24.50;77.60;;;28.22;34.47;97864.19;5200351;28;20221;-64
2023/06/17 06:50:10;;;;;;;6.57;5.97;;;24.80;75.90;;;28.25;34.49;97872.03;5191834;28;20674;-64
2023/06/17 06:52:43;;;;;;;6.53;6.03;;;25.30;75.60;;;28.59;34.53;97868.97;5195564;28;20218;-65
2023/06/17 06:55:16;;;;;;;6.70;6.10;;;25.60;74.80;;;28.69;33.65;97862.66;5200458;28;20221;-65
2023/06/17 06:57:49;;;;;;;6.65;6.05;;;25.60;74.30;;;28.99;33.32;97865.72;5201708;28;20693;-65
2023/06/17 07:00:23;;;;;;;6.03;5.53;;;25.70;73.90;;;29.12;33.44;97867.25;5198573;28;20241;-65
2023/06/17 07:02:56;;;;;;;6.35;5.72;;;26.00;73.40;;;29.22;33.94;97867.09;5201495;28;20228;-64
2023/06/17 07:05:31;;;;;;;7.00;6.30;;;26.10;73.20;;;29.19;32.90;97878.59;5196833;28;20235;-65
2023/06/17 07:08:04;;;;;;;7.18;6.47;;;26.00;72.80;;;28.78;33.70;97871.31;5201126;28;20596;-65
2023/06/17 07:10:39;;;;;;;6.18;5.57;;;25.60;73.20;;;28.72;33.78;97875.78;5196690;28;20224;-64
2023/06/17 07:13:14;;;;;;;7.00;6.30;;;25.40;74.40;;;28.73;34.39;97879.25;5194193;28;20787;-64
2023/06/17 07:15:47;;;;;;;5.90;5.40;;;25.80;73.50;;;29.16;32.54;97879.50;5195655;28;20229;-65
2023/06/17 07:18:21;;;;;;;6.70;6.20;;;26.00;71.70;;;29.47;33.09;97878.94;5193796;28;20221;-66
2023/06/17 07:20:55;;;;;;;6.03;5.57;;;26.40;72.00;;;29.51;31.50;97880.63;5189878;28;20225;-65
2023/06/17 07:23:28;;;;;;;6.07;5.57;;;26.80;69.00;;;29.64;31.49;97882.16;5191797;28;20217;-65
2023/06/17 07:26:01;;;;;;;5.85;5.45;;;27.20;68.30;;;29.63;32.14;97883.06;5197261;28;20245;-65
2023/06/17 07:28:35;;;;;;;6.47;5.88;;;27.20;69.10;;;29.98;31.41;97876.22;5193146;28;20697;-64
2023/06/17 07:31:08;;;;;;;5.97;5.40;;;27.20;68.20;;;30.16;31.38;97876.75;5196289;28;20225;-65
2023/06/17 07:33:41;;;;;;;6.65;6.03;;;27.40;68.50;;;30.24;30.85;97874.84;5194513;28;20655;-66
2023/06/17 07:36:16;;;;;;;6.10;5.60;;;27.60;66.90;;;30.26;30.76;97868.66;5193419;28;20255;-65
2023/06/17 07:38:50;;;;;;;6.03;5.43;;;27.40;66.70;;;30.33;30.29;97869.38;5190674;28;20220;-67
2023/06/17 07:41:24;;;;;;;7.25;5.80;;;27.50;66.70;;;30.40;30.39;97873.63;5197236;28;20716;-64
2023/06/17 07:43:57;;;;;;;5.72;5.22;;;27.70;65.40;;;30.66;30.08;97867.75;5195876;28;20336;-64
2023/06/17 07:46:31;;;;;;;5.93;5.53;;;27.90;65.30;;;30.69;29.68;97858.91;5180527;28;20275;-66
2023/06/17 07:49:05;;;;;;;6.50;6.00;;;28.00;64.50;;;30.97;28.88;97867.91;5191763;28;20304;-65
2023/06/17 07:51:39;;;;;;;6.43;5.93;;;28.10;63.80;;;31.03;29.14;97861.63;5185062;28;20980;-67
2023/06/17 07:54:12;;;;;;;6.13;5.63;;;28.00;64.30;;;31.15;29.11;97858.66;5190107;28;20938;-66
2023/06/17 07:56:46;;;;;;;5.90;5.40;;;28.10;64.50;;;31.34;28.54;97852.91;5189421;28;20256;-65
2023/06/17 07:59:19;;;;;;;5.88;5.40;;;28.30;63.30;;;31.71;28.44;97857.25;5183723;28;20226;-67
2023/06/17 08:01:52;;;;;;;6.80;5.78;;;28.60;63.30;;;31.86;28.25;97852.38;5182974;28;20256;-65
2023/06/17 08:04:25;;;;;;;6.30;5.80;;;28.80;63.40;;;31.89;28.02;97856.72;5184619;28;20217;-66
2023/06/17 08:07:01;;;;;;;6.00;5.47;;;28.90;62.70;;;32.37;27.31;97853.56;5184324;28;20292;-66
2023/06/17 08:09:34;;;;;;;6.60;6.10;;;29.20;61.80;;;32.53;26.86;97854.81;5186959;28;20634;-65
2023/06/17 08:12:08;;;;;;;6.38;5.88;;;29.10;61.80;;;32.47;27.30;97851.50;5184826;28;20594;-66
2023/06/17 08:14:41;;;;;;;6.03;5.53;;;29.00;62.70;;;32.37;27.19;97852.69;5180397;28;20225;-65
2023/06/17 08:17:14;;;;;;;6.10;5.65;;;29.20;62.00;;;32.59;26.91;97847.63;5191460;28;20252;-65
2023/06/17 08:19:47;;;;;;;6.15;5.65;;;29.40;61.70;;;32.73;27.18;97851.53;5186698;28;20222;-65
2023/06/17 08:22:22;;;;;;;5.90;5.40;;;29.40;62.00;;;32.86;27.10;97848.53;5185266;28;20658;-64
2023/06/17 08:24:55;;;;;;;7.05;5.70;;;29.90;60.90;;;32.50;27.24;97843.47;5190550;28;20631;-65
2023/06/17 08:27:28;;;;;;;6.28;5.68;;;29.90;59.90;;;32.10;27.67;97836.72;5179901;28;20690;-65
2023/06/17 08:30:05;;;;;;;6.82;6.22;;;29.60;61.00;;;31.87;27.74;97840.00;5183403;28;20212;-67
2023/06/17 08:32:38;;;;;;;6.50;5.90;;;29.60;60.00;;;31.71;27.15;97836.09;5183577;28;20337;-65
2023/06/17 08:35:12;;;;;;;5.93;5.32;;;29.60;58.60;;;31.58;27.71;97838.19;5186172;28;20225;-65
2023/06/17 08:37:47;;;;;;;6.13;5.63;;;29.40;59.30;;;31.61;28.11;97832.81;5189490;28;20260;-64
2023/06/17 08:40:22;;;;;;;6.50;6.00;;;29.40;60.20;;;31.71;28.15;97831.66;5190122;28;20703;-65
2023/06/17 08:43:01;;;;;;;6.43;5.65;;;29.80;59.70;;;31.47;28.16;97837.63;5185782;28;20221;-65
2023/06/17 08:45:35;;;;;;;6.35;5.85;;;29.80;59.30;;;31.47;27.56;97832.34;5184189;28;20608;-66
2023/06/17 08:48:12;;;;;;;6.22;5.63;;;29.70;58.90;;;31.03;27.80;97826.44;5191163;28;20657;-65
2023/06/17 08:50:49;;;;;;;6.07;5.65;;;29.50;58.10;;;31.18;27.87;97824.22;5187820;28;20225;-65
2023/06/17 08:53:24;;;;;;;6.40;5.90;;;29.50;58.60;;;31.16;28.18;97830.47;5181933;28;20316;-66
2023/06/17 08:55:57;;;;;;;6.40;5.80;;;29.70;58.60;;;31.34;27.28;97824.72;5190199;28;20225;-65
2023/06/17 08:58:30;;;;;;;6.20;5.45;;;30.00;57.70;;;31.36;25.76;97820.28;5190406;28;20233;-65
2023/06/17 09:01:05;;;;;;;6.25;5.57;;;30.00;55.10;;;31.38;25.57;97826.38;5191744;28;20233;-66
2023/06/17 09:03:41;;;;;;;5.70;5.20;;;30.20;54.80;;;31.42;25.42;97820.13;5194313;28;20827;-66
2023/06/17 09:06:21;;;;;;;5.65;5.20;;;30.30;54.30;;;31.49;23.81;97812.03;5191797;28;20716;-64
2023/06/17 09:08:57;;;;;;;6.10;5.38;;;30.10;52.90;;;31.44;24.65;97816.56;5195828;28;20221;-65
2023/06/17 09:11:33;;;;;;;6.15;5.55;;;30.40;53.60;;;31.50;24.55;97819.03;5190033;28;20733;-65
2023/06/17 09:14:06;;;;;;;5.78;5.22;;;30.40;53.10;;;31.46;24.09;97826.19;5193293;28;20229;-66
2023/06/17 09:16:40;;;;;;;5.88;5.22;;;30.40;52.30;;;31.28;24.12;97821.34;5196600;28;21007;-65
2023/06/17 09:19:14;;;;;;;5.93;5.35;;;30.20;52.50;;;31.12;23.74;97826.19;5197484;28;20229;-65
2023/06/17 09:21:48;;;;;;;5.80;5.30;;;30.00;51.70;;;31.23;24.09;97820.63;5193592;28;20221;-65
2023/06/17 09:24:30;;;;;;;5.80;5.40;;;30.10;52.30;;;31.29;23.36;97815.19;5196389;28;20217;-65
2023/06/17 09:27:04;;;;;;;6.40;5.80;;;30.30;51.30;;;31.33;23.85;97814.16;5198386;28;20693;-65
2023/06/17 09:29:38;;;;;;;6.70;6.20;;;30.40;51.40;;;31.26;23.48;97813.47;5195982;28;20650;-65
2023/06/17 09:32:11;;;;;;;6.05;5.63;;;30.10;52.10;;;31.36;23.95;97807.09;5200036;28;20248;-65
2023/06/17 09:34:49;;;;;;;5.93;5.40;;;30.20;51.80;;;31.42;24.31;97804.28;5194926;28;20288;-66
2023/06/17 09:37:22;;;;;;;6.43;5.80;;;30.30;52.50;;;31.36;24.05;97799.16;5198547;28;20278;-65
2023/06/17 09:39:59;;;;;;;6.57;5.97;;;30.50;51.80;;;30.85;23.06;97811.88;5196372;28;20225;-65
2023/06/17 09:42:32;;;;;;;6.10;5.60;;;30.10;50.20;;;30.59;22.38;97807.22;5195635;28;20224;-65
2023/06/17 09:45:11;;;;;;;5.88;5.40;;;29.60;49.60;;;30.72;23.11;97801.63;5195422;28;20738;-65
2023/06/17 09:47:52;;;;;;;6.05;5.63;;;29.70;50.70;;;31.01;23.31;97796.53;5188833;28;20779;-66
2023/06/17 09:50:26;;;;;;;6.20;5.70;;;30.10;51.10;;;31.12;23.93;97799.78;5190427;28;20229;-65
2023/06/17 09:53:01;;;;;;;6.30;5.80;;;30.10;51.70;;;31.05;23.83;97796.44;5192210;28;20216;-66
2023/06/17 09:55:37;;;;;;;5.97;5.47;;;30.10;51.80;;;31.06;24.10;97798.16;5194844;28;20229;-66
2023/06/17 09:58:12;;;;;;;6.13;5.63;;;30.00;51.50;;;30.94;24.53;97801.13;5195490;28;20217;-66
2023/06/17 10:00:47;;;;;;;6.93;6.32;;;29.90;52.20;;;30.73;24.59;97791.91;5196755;28;20272;-66
2023/06/17 10:03:20;;;;;;;6.90;6.05;;;29.80;52.40;;;30.94;24.29;97785.28;5197071;28;20859;-66
2023/06/17 10:05:58;;;;;;;6.50;6.00;;;29.90;52.20;;;30.96;24.03;97789.63;5189633;28;20225;-66
2023/06/17 10:08:32;;;;;;;6.38;5.97;;;29.70;52.60;;;30.72;24.12;97785.78;5184849;28;20670;-66
2023/06/17 10:11:06;;;;;;;6.50;5.75;;;29.50;52.20;;;30.73;24.75;97794.56;5186203;28;20224;-66
2023/06/17 10:13:42;;;;;;;6.20;5.70;;;29.60;52.50;;;30.68;23.75;97784.13;5189862;28;20575;-66
2023/06/17 10:16:20;;;;;;;6.55;5.93;;;29.60;51.00;;;30.80;24.34;97785.63;5193580;28;20245;-65
2023/06/17 10:18:56;;;;;;;6.15;5.65;;;29.70;51.70;;;30.86;23.90;97785.47;5188041;28;20928;-65
2023/06/17 10:21:30;;;;;;;6.05;5.50;;;29.80;51.50;;;30.49;23.75;97774.94;5188709;28;20279;-66
2023/06/17 10:24:05;;;;;;;5.93;5.43;;;29.20;51.10;;;30.19;24.23;97773.81;5191569;28;20286;-67
2023/06/17 10:26:40;;;;;;;5.78;5.22;;;28.80;52.10;;;30.26;24.92;97763.16;5189844;28;20232;-66
2023/06/17 10:29:13;;;;;;;6.35;5.75;;;29.00;52.50;;;30.38;24.72;97761.97;5190649;28;20290;-65
2023/06/17 10:31:46;;;;;;;6.05;5.60;;;29.40;52.00;;;30.26;24.64;97765.78;5189674;28;20291;-65
2023/06/17 10:34:23;;;;;;;6.20;5.70;;;29.50;52.10;;;30.46;24.42;97770.59;5187882;28;20279;-65
2023/06/17 10:37:00;;;;;;;6.00;5.50;;;29.60;51.70;;;30.51;23.36;97759.94;5184885;28;20228;-65
2023/06/17 10:39:33;;;;;;;5.97;5.47;;;29.50;49.90;;;30.45;22.92;97755.66;5193351;28;20233;-65
2023/06/17 10:42:14;;;;;;;6.00;5.50;;;29.30;49.80;;;30.31;22.89;97755.13;5187312;28;20229;-65
2023/06/17 10:44:51;;;;;;;6.35;5.75;;;29.30;50.00;;;30.04;23.69;97765.38;5186005;28;20237;-65
2023/06/17 10:47:31;;;;;;;6.28;5.68;;;28.90;50.80;;;30.11;24.21;97757.34;5191307;28;20221;-65
2023/06/17 10:50:06;;;;;;;6.22;5.72;;;29.00;51.50;;;29.98;24.81;97744.41;5194835;28;20224;-65